sensor_id;sensor_type;location;lat;lon;timestamp;P1;durP1;ratioP1;P2;durP2;ratioP2
70126;SDS011;57491;42.694;23.314;2023-07-28T00:02:16;7.75;;;6.95;;
70126;SDS011;57491;42.694;23.314;2023-07-28T00:04:43;5.18;;;4.68;;
70126;SDS011;57491;42.694;23.314;2023-07-28T00:07:10;5.05;;;4.35;;
70126;SDS011;57491;42.694;23.314;2023-07-28T00:09:37;4.77;;;4.37;;
70126;SDS011;57491;42.694;23.314;2023-07-28T00:12:04;4.63;;;4.17;;
70126;SDS011;57491;42.694;23.314;2023-07-28T00:16:58;6.73;;;4.67;;
70126;SDS011;57491;42.694;23.314;2023-07-28T00:19:27;6.17;;;4.50;;
70126;SDS011;57491;42.694;23.314;2023-07-28T00:21:54;4.60;;;4.20;;
70126;SDS011;57491;42.694;23.314;2023-07-28T00:24:21;6.90;;;4.93;;
70126;SDS011;57491;42.694;23.314;2023-07-28T00:26:49;4.60;;;4.20;;
70126;SDS011;57491;42.694;23.314;2023-07-28T00:29:16;5.00;;;4.50;;
70126;SDS011;57491;42.694;23.314;2023-07-28T00:34:10;5.00;;;4.60;;
70126;SDS011;57491;42.694;23.314;2023-07-28T00:36:39;5.63;;;5.23;;
70126;SDS011;57491;42.694;23.314;2023-07-28T00:39:06;4.95;;;4.47;;
70126;SDS011;57491;42.694;23.314;2023-07-28T00:41:33;5.22;;;4.65;;
70126;SDS011;57491;42.694;23.314;2023-07-28T00:44:00;5.87;;;4.90;;
70126;SDS011;57491;42.694;23.314;2023-07-28T00:46:27;5.90;;;4.83;;
70126;SDS011;57491;42.694;23.314;2023-07-28T00:48:54;5.27;;;4.73;;
70126;SDS011;57491;42.694;23.314;2023-07-28T00:51:21;5.88;;;4.97;;
70126;SDS011;57491;42.694;23.314;2023-07-28T00:53:50;10.13;;;5.38;;
70126;SDS011;57491;42.694;23.314;2023-07-28T00:56:18;6.45;;;5.20;;
70126;SDS011;57491;42.694;23.314;2023-07-28T00:58:46;5.03;;;4.63;;
70126;SDS011;57491;42.694;23.314;2023-07-28T01:01:14;5.47;;;4.97;;
70126;SDS011;57491;42.694;23.314;2023-07-28T01:03:41;5.40;;;4.90;;
70126;SDS011;57491;42.694;23.314;2023-07-28T01:06:10;7.83;;;5.27;;
70126;SDS011;57491;42.694;23.314;2023-07-28T01:08:46;5.80;;;5.28;;
70126;SDS011;57491;42.694;23.314;2023-07-28T01:11:23;6.10;;;5.68;;
70126;SDS011;57491;42.694;23.314;2023-07-28T01:13:51;5.10;;;4.70;;
70126;SDS011;57491;42.694;23.314;2023-07-28T01:16:18;6.53;;;4.93;;
70126;SDS011;57491;42.694;23.314;2023-07-28T01:18:45;5.35;;;4.85;;
70126;SDS011;57491;42.694;23.314;2023-07-28T01:21:13;9.87;;;5.10;;
70126;SDS011;57491;42.694;23.314;2023-07-28T01:23:44;4.78;;;4.38;;
70126;SDS011;57491;42.694;23.314;2023-07-28T01:26:27;5.38;;;4.88;;
70126;SDS011;57491;42.694;23.314;2023-07-28T01:28:57;5.05;;;4.65;;
70126;SDS011;57491;42.694;23.314;2023-07-28T01:31:27;6.03;;;4.60;;
70126;SDS011;57491;42.694;23.314;2023-07-28T01:33:54;5.25;;;4.80;;
70126;SDS011;57491;42.694;23.314;2023-07-28T01:36:21;4.68;;;4.28;;
70126;SDS011;57491;42.694;23.314;2023-07-28T01:38:48;5.72;;;4.50;;
70126;SDS011;57491;42.694;23.314;2023-07-28T01:41:16;5.70;;;5.20;;
70126;SDS011;57491;42.694;23.314;2023-07-28T01:43:44;5.13;;;4.50;;
70126;SDS011;57491;42.694;23.314;2023-07-28T01:46:11;5.35;;;4.60;;
70126;SDS011;57491;42.694;23.314;2023-07-28T01:48:38;6.00;;;5.43;;
70126;SDS011;57491;42.694;23.314;2023-07-28T01:51:05;5.20;;;4.70;;
70126;SDS011;57491;42.694;23.314;2023-07-28T01:53:32;5.47;;;4.50;;
70126;SDS011;57491;42.694;23.314;2023-07-28T01:55:59;5.57;;;5.07;;
70126;SDS011;57491;42.694;23.314;2023-07-28T01:58:27;5.10;;;4.63;;
70126;SDS011;57491;42.694;23.314;2023-07-28T02:00:55;4.95;;;4.20;;
70126;SDS011;57491;42.694;23.314;2023-07-28T02:03:23;7.10;;;4.55;;
70126;SDS011;57491;42.694;23.314;2023-07-28T02:05:50;5.53;;;4.30;;
70126;SDS011;57491;42.694;23.314;2023-07-28T02:10:44;4.30;;;3.80;;
70126;SDS011;57491;42.694;23.314;2023-07-28T02:13:12;4.15;;;3.85;;
70126;SDS011;57491;42.694;23.314;2023-07-28T02:15:39;3.87;;;3.57;;
70126;SDS011;57491;42.694;23.314;2023-07-28T02:18:07;4.30;;;3.92;;
70126;SDS011;57491;42.694;23.314;2023-07-28T02:20:34;4.28;;;3.42;;
70126;SDS011;57491;42.694;23.314;2023-07-28T02:23:03;4.93;;;3.45;;
70126;SDS011;57491;42.694;23.314;2023-07-28T02:25:30;3.60;;;3.23;;
70126;SDS011;57491;42.694;23.314;2023-07-28T02:27:57;5.60;;;3.67;;
70126;SDS011;57491;42.694;23.314;2023-07-28T02:30:24;6.32;;;3.65;;
70126;SDS011;57491;42.694;23.314;2023-07-28T02:32:51;4.55;;;3.75;;
70126;SDS011;57491;42.694;23.314;2023-07-28T02:35:20;5.13;;;4.00;;
70126;SDS011;57491;42.694;23.314;2023-07-28T02:37:47;3.95;;;3.65;;
70126;SDS011;57491;42.694;23.314;2023-07-28T02:40:14;5.17;;;3.90;;
70126;SDS011;57491;42.694;23.314;2023-07-28T02:42:41;5.80;;;3.92;;
70126;SDS011;57491;42.694;23.314;2023-07-28T02:45:09;4.17;;;3.80;;
70126;SDS011;57491;42.694;23.314;2023-07-28T02:47:36;5.50;;;3.67;;
70126;SDS011;57491;42.694;23.314;2023-07-28T02:50:03;4.80;;;4.30;;
70126;SDS011;57491;42.694;23.314;2023-07-28T02:54:59;6.50;;;4.53;;
70126;SDS011;57491;42.694;23.314;2023-07-28T02:57:26;6.13;;;4.20;;
70126;SDS011;57491;42.694;23.314;2023-07-28T02:59:53;5.03;;;4.33;;
70126;SDS011;57491;42.694;23.314;2023-07-28T03:02:20;6.15;;;4.90;;
70126;SDS011;57491;42.694;23.314;2023-07-28T03:04:47;5.50;;;4.67;;
70126;SDS011;57491;42.694;23.314;2023-07-28T03:07:15;5.18;;;4.47;;
70126;SDS011;57491;42.694;23.314;2023-07-28T03:09:43;5.17;;;4.57;;
70126;SDS011;57491;42.694;23.314;2023-07-28T03:12:10;7.93;;;4.68;;
70126;SDS011;57491;42.694;23.314;2023-07-28T03:14:38;10.25;;;5.63;;
70126;SDS011;57491;42.694;23.314;2023-07-28T03:17:05;6.83;;;5.00;;
70126;SDS011;57491;42.694;23.314;2023-07-28T03:19:32;5.60;;;4.75;;
70126;SDS011;57491;42.694;23.314;2023-07-28T03:21:59;7.30;;;4.80;;
70126;SDS011;57491;42.694;23.314;2023-07-28T03:24:26;6.23;;;4.97;;
70126;SDS011;57491;42.694;23.314;2023-07-28T03:26:55;4.93;;;4.47;;
70126;SDS011;57491;42.694;23.314;2023-07-28T03:29:22;5.70;;;4.82;;
70126;SDS011;57491;42.694;23.314;2023-07-28T03:31:49;6.70;;;4.88;;
70126;SDS011;57491;42.694;23.314;2023-07-28T03:34:17;7.67;;;4.73;;
70126;SDS011;57491;42.694;23.314;2023-07-28T03:36:44;8.07;;;5.38;;
70126;SDS011;57491;42.694;23.314;2023-07-28T03:39:11;5.60;;;4.60;;
70126;SDS011;57491;42.694;23.314;2023-07-28T03:41:38;4.78;;;4.30;;
70126;SDS011;57491;42.694;23.314;2023-07-28T03:44:06;7.47;;;4.60;;
70126;SDS011;57491;42.694;23.314;2023-07-28T03:46:34;8.75;;;5.50;;
70126;SDS011;57491;42.694;23.314;2023-07-28T03:49:01;5.57;;;4.43;;
70126;SDS011;57491;42.694;23.314;2023-07-28T03:51:28;7.73;;;4.63;;
70126;SDS011;57491;42.694;23.314;2023-07-28T03:53:55;5.30;;;4.80;;
70126;SDS011;57491;42.694;23.314;2023-07-28T03:56:22;7.43;;;4.70;;
70126;SDS011;57491;42.694;23.314;2023-07-28T03:58:49;5.17;;;4.00;;
70126;SDS011;57491;42.694;23.314;2023-07-28T04:01:17;6.63;;;4.70;;
70126;SDS011;57491;42.694;23.314;2023-07-28T04:03:44;6.70;;;5.15;;
70126;SDS011;57491;42.694;23.314;2023-07-28T04:06:11;7.03;;;4.40;;
70126;SDS011;57491;42.694;23.314;2023-07-28T04:08:38;7.30;;;4.83;;
70126;SDS011;57491;42.694;23.314;2023-07-28T04:11:06;5.18;;;4.68;;
70126;SDS011;57491;42.694;23.314;2023-07-28T04:13:33;5.30;;;4.47;;
70126;SDS011;57491;42.694;23.314;2023-07-28T04:16:00;5.22;;;4.57;;
70126;SDS011;57491;42.694;23.314;2023-07-28T04:18:29;10.95;;;6.35;;
70126;SDS011;57491;42.694;23.314;2023-07-28T04:20:57;11.25;;;5.30;;
70126;SDS011;57491;42.694;23.314;2023-07-28T04:23:24;5.50;;;4.80;;
70126;SDS011;57491;42.694;23.314;2023-07-28T04:25:51;5.53;;;5.07;;
70126;SDS011;57491;42.694;23.314;2023-07-28T04:28:18;5.00;;;4.53;;
70126;SDS011;57491;42.694;23.314;2023-07-28T04:30:49;8.43;;;5.00;;
70126;SDS011;57491;42.694;23.314;2023-07-28T04:33:16;9.30;;;5.18;;
70126;SDS011;57491;42.694;23.314;2023-07-28T04:35:45;5.87;;;4.80;;
70126;SDS011;57491;42.694;23.314;2023-07-28T04:38:12;7.38;;;5.03;;
70126;SDS011;57491;42.694;23.314;2023-07-28T04:40:39;7.13;;;5.67;;
70126;SDS011;57491;42.694;23.314;2023-07-28T04:43:06;8.67;;;5.50;;
70126;SDS011;57491;42.694;23.314;2023-07-28T04:45:33;11.37;;;5.00;;
70126;SDS011;57491;42.694;23.314;2023-07-28T04:48:00;11.07;;;4.97;;
70126;SDS011;57491;42.694;23.314;2023-07-28T04:50:27;7.50;;;4.60;;
70126;SDS011;57491;42.694;23.314;2023-07-28T04:52:56;5.40;;;4.70;;
70126;SDS011;57491;42.694;23.314;2023-07-28T04:55:23;5.88;;;4.47;;
70126;SDS011;57491;42.694;23.314;2023-07-28T04:57:52;8.52;;;4.75;;
70126;SDS011;57491;42.694;23.314;2023-07-28T05:00:19;6.18;;;3.97;;
70126;SDS011;57491;42.694;23.314;2023-07-28T05:02:46;11.17;;;4.83;;
70126;SDS011;57491;42.694;23.314;2023-07-28T05:05:13;12.90;;;4.35;;
70126;SDS011;57491;42.694;23.314;2023-07-28T05:07:40;8.17;;;4.57;;
70126;SDS011;57491;42.694;23.314;2023-07-28T05:10:09;6.00;;;4.15;;
70126;SDS011;57491;42.694;23.314;2023-07-28T05:12:37;6.93;;;4.25;;
70126;SDS011;57491;42.694;23.314;2023-07-28T05:15:04;6.23;;;4.20;;
70126;SDS011;57491;42.694;23.314;2023-07-28T05:17:35;6.82;;;4.32;;
70126;SDS011;57491;42.694;23.314;2023-07-28T05:20:02;5.73;;;4.53;;
70126;SDS011;57491;42.694;23.314;2023-07-28T05:22:30;5.07;;;4.20;;
70126;SDS011;57491;42.694;23.314;2023-07-28T05:24:57;8.60;;;4.28;;
70126;SDS011;57491;42.694;23.314;2023-07-28T05:27:25;5.77;;;4.40;;
70126;SDS011;57491;42.694;23.314;2023-07-28T05:29:52;7.07;;;4.50;;
70126;SDS011;57491;42.694;23.314;2023-07-28T05:32:20;8.93;;;5.03;;
70126;SDS011;57491;42.694;23.314;2023-07-28T05:37:14;9.25;;;5.00;;
70126;SDS011;57491;42.694;23.314;2023-07-28T05:39:42;7.72;;;4.68;;
70126;SDS011;57491;42.694;23.314;2023-07-28T05:42:09;9.77;;;5.15;;
70126;SDS011;57491;42.694;23.314;2023-07-28T05:44:38;7.87;;;4.90;;
70126;SDS011;57491;42.694;23.314;2023-07-28T05:47:05;9.85;;;4.82;;
70126;SDS011;57491;42.694;23.314;2023-07-28T05:49:33;8.50;;;5.25;;
70126;SDS011;57491;42.694;23.314;2023-07-28T05:52:00;11.17;;;5.60;;
70126;SDS011;57491;42.694;23.314;2023-07-28T05:54:27;7.28;;;6.13;;
70126;SDS011;57491;42.694;23.314;2023-07-28T05:56:54;10.00;;;6.53;;
70126;SDS011;57491;42.694;23.314;2023-07-28T05:59:21;8.82;;;7.13;;
70126;SDS011;57491;42.694;23.314;2023-07-28T06:01:49;6.45;;;5.80;;
70126;SDS011;57491;42.694;23.314;2023-07-28T06:04:16;7.45;;;5.38;;
70126;SDS011;57491;42.694;23.314;2023-07-28T06:06:43;6.75;;;4.97;;
70126;SDS011;57491;42.694;23.314;2023-07-28T06:09:10;9.70;;;5.40;;
70126;SDS011;57491;42.694;23.314;2023-07-28T06:11:38;9.82;;;4.75;;
70126;SDS011;57491;42.694;23.314;2023-07-28T06:14:05;5.50;;;4.82;;
70126;SDS011;57491;42.694;23.314;2023-07-28T06:16:32;7.13;;;5.40;;
70126;SDS011;57491;42.694;23.314;2023-07-28T06:19:00;6.10;;;4.50;;
70126;SDS011;57491;42.694;23.314;2023-07-28T06:21:27;9.93;;;4.88;;
70126;SDS011;57491;42.694;23.314;2023-07-28T06:23:54;10.80;;;5.03;;
70126;SDS011;57491;42.694;23.314;2023-07-28T06:26:21;7.82;;;5.00;;
70126;SDS011;57491;42.694;23.314;2023-07-28T06:28:49;7.35;;;5.13;;
70126;SDS011;57491;42.694;23.314;2023-07-28T06:31:16;6.70;;;5.20;;
70126;SDS011;57491;42.694;23.314;2023-07-28T06:33:43;8.20;;;5.85;;
70126;SDS011;57491;42.694;23.314;2023-07-28T06:36:11;7.43;;;5.38;;
70126;SDS011;57491;42.694;23.314;2023-07-28T06:38:39;8.05;;;5.68;;
70126;SDS011;57491;42.694;23.314;2023-07-28T06:41:06;7.60;;;5.18;;
70126;SDS011;57491;42.694;23.314;2023-07-28T06:43:33;7.97;;;5.25;;
70126;SDS011;57491;42.694;23.314;2023-07-28T06:46:00;6.60;;;4.57;;
70126;SDS011;57491;42.694;23.314;2023-07-28T06:48:27;7.78;;;5.03;;
70126;SDS011;57491;42.694;23.314;2023-07-28T06:50:55;6.88;;;5.75;;
70126;SDS011;57491;42.694;23.314;2023-07-28T06:53:23;7.65;;;4.80;;
70126;SDS011;57491;42.694;23.314;2023-07-28T06:55:50;7.38;;;5.13;;
70126;SDS011;57491;42.694;23.314;2023-07-28T06:58:17;9.43;;;5.72;;
70126;SDS011;57491;42.694;23.314;2023-07-28T07:00:44;8.73;;;5.65;;
70126;SDS011;57491;42.694;23.314;2023-07-28T07:03:11;9.52;;;5.00;;
70126;SDS011;57491;42.694;23.314;2023-07-28T07:08:06;7.85;;;5.43;;
70126;SDS011;57491;42.694;23.314;2023-07-28T07:13:02;5.00;;;4.60;;
70126;SDS011;57491;42.694;23.314;2023-07-28T07:15:29;5.30;;;4.85;;
70126;SDS011;57491;42.694;23.314;2023-07-28T07:17:56;5.82;;;4.85;;
70126;SDS011;57491;42.694;23.314;2023-07-28T07:20:23;7.95;;;5.47;;
70126;SDS011;57491;42.694;23.314;2023-07-28T07:22:50;7.85;;;5.00;;
70126;SDS011;57491;42.694;23.314;2023-07-28T07:25:17;11.60;;;4.85;;
70126;SDS011;57491;42.694;23.314;2023-07-28T07:27:45;7.90;;;5.82;;
70126;SDS011;57491;42.694;23.314;2023-07-28T07:30:13;6.10;;;5.55;;
70126;SDS011;57491;42.694;23.314;2023-07-28T07:32:40;5.70;;;4.82;;
70126;SDS011;57491;42.694;23.314;2023-07-28T07:35:07;10.50;;;5.22;;
70126;SDS011;57491;42.694;23.314;2023-07-28T07:37:35;7.68;;;4.72;;
70126;SDS011;57491;42.694;23.314;2023-07-28T07:40:02;10.18;;;6.22;;
70126;SDS011;57491;42.694;23.314;2023-07-28T07:42:39;8.25;;;4.40;;
70126;SDS011;57491;42.694;23.314;2023-07-28T07:45:10;5.63;;;4.63;;
70126;SDS011;57491;42.694;23.314;2023-07-28T07:47:38;8.60;;;5.78;;
70126;SDS011;57491;42.694;23.314;2023-07-28T07:50:06;8.55;;;5.43;;
70126;SDS011;57491;42.694;23.314;2023-07-28T07:52:35;7.93;;;5.35;;
70126;SDS011;57491;42.694;23.314;2023-07-28T07:55:02;5.22;;;4.72;;
70126;SDS011;57491;42.694;23.314;2023-07-28T08:02:25;5.85;;;4.85;;
70126;SDS011;57491;42.694;23.314;2023-07-28T08:04:52;6.80;;;5.22;;
70126;SDS011;57491;42.694;23.314;2023-07-28T08:07:19;31.20;;;17.60;;
70126;SDS011;57491;42.694;23.314;2023-07-28T08:09:47;31.75;;;19.08;;
70126;SDS011;57491;42.694;23.314;2023-07-28T08:14:42;6.57;;;4.47;;
70126;SDS011;57491;42.694;23.314;2023-07-28T08:17:09;8.00;;;4.95;;
70126;SDS011;57491;42.694;23.314;2023-07-28T08:19:38;6.70;;;5.13;;
70126;SDS011;57491;42.694;23.314;2023-07-28T08:22:06;13.13;;;5.32;;
70126;SDS011;57491;42.694;23.314;2023-07-28T08:24:34;7.18;;;4.53;;
70126;SDS011;57491;42.694;23.314;2023-07-28T08:27:01;7.18;;;4.53;;
70126;SDS011;57491;42.694;23.314;2023-07-28T08:29:29;9.95;;;6.38;;
70126;SDS011;57491;42.694;23.314;2023-07-28T08:34:23;19.20;;;6.40;;
70126;SDS011;57491;42.694;23.314;2023-07-28T08:36:51;11.02;;;4.60;;
70126;SDS011;57491;42.694;23.314;2023-07-28T08:39:18;6.05;;;4.25;;
70126;SDS011;57491;42.694;23.314;2023-07-28T08:41:45;10.85;;;4.38;;
70126;SDS011;57491;42.694;23.314;2023-07-28T08:44:12;5.18;;;3.88;;
70126;SDS011;57491;42.694;23.314;2023-07-28T08:46:41;7.10;;;5.28;;
70126;SDS011;57491;42.694;23.314;2023-07-28T08:49:08;6.38;;;4.70;;
70126;SDS011;57491;42.694;23.314;2023-07-28T08:51:40;5.60;;;4.25;;
70126;SDS011;57491;42.694;23.314;2023-07-28T08:54:09;6.00;;;3.85;;
70126;SDS011;57491;42.694;23.314;2023-07-28T08:56:37;8.45;;;4.82;;
70126;SDS011;57491;42.694;23.314;2023-07-28T08:59:04;6.75;;;4.18;;
70126;SDS011;57491;42.694;23.314;2023-07-28T09:01:30;6.70;;;4.00;;
70126;SDS011;57491;42.694;23.314;2023-07-28T09:03:57;8.65;;;4.70;;
70126;SDS011;57491;42.694;23.314;2023-07-28T09:06:27;6.22;;;4.32;;
70126;SDS011;57491;42.694;23.314;2023-07-28T09:08:56;6.78;;;3.80;;
70126;SDS011;57491;42.694;23.314;2023-07-28T09:13:53;8.90;;;3.78;;
70126;SDS011;57491;42.694;23.314;2023-07-28T09:16:21;9.32;;;4.82;;
70126;SDS011;57491;42.694;23.314;2023-07-28T09:18:49;6.00;;;4.00;;
70126;SDS011;57491;42.694;23.314;2023-07-28T09:21:17;7.00;;;3.47;;
70126;SDS011;57491;42.694;23.314;2023-07-28T09:23:46;9.05;;;3.55;;
70126;SDS011;57491;42.694;23.314;2023-07-28T09:26:13;5.57;;;3.70;;
70126;SDS011;57491;42.694;23.314;2023-07-28T09:28:42;9.82;;;4.15;;
70126;SDS011;57491;42.694;23.314;2023-07-28T09:31:09;6.38;;;4.50;;
70126;SDS011;57491;42.694;23.314;2023-07-28T09:33:37;10.63;;;4.10;;
70126;SDS011;57491;42.694;23.314;2023-07-28T09:36:08;5.10;;;3.80;;
70126;SDS011;57491;42.694;23.314;2023-07-28T09:38:37;5.05;;;3.85;;
70126;SDS011;57491;42.694;23.314;2023-07-28T09:41:06;8.05;;;3.67;;
70126;SDS011;57491;42.694;23.314;2023-07-28T09:43:35;8.25;;;4.25;;
70126;SDS011;57491;42.694;23.314;2023-07-28T09:46:05;7.70;;;4.20;;
70126;SDS011;57491;42.694;23.314;2023-07-28T09:48:34;6.82;;;4.30;;
70126;SDS011;57491;42.694;23.314;2023-07-28T09:51:05;8.93;;;4.43;;
70126;SDS011;57491;42.694;23.314;2023-07-28T09:53:37;8.30;;;4.13;;
70126;SDS011;57491;42.694;23.314;2023-07-28T09:56:08;5.15;;;3.53;;
70126;SDS011;57491;42.694;23.314;2023-07-28T09:58:38;5.00;;;3.17;;
70126;SDS011;57491;42.694;23.314;2023-07-28T10:01:10;6.35;;;4.38;;
70126;SDS011;57491;42.694;23.314;2023-07-28T10:03:38;7.30;;;3.35;;
70126;SDS011;57491;42.694;23.314;2023-07-28T10:06:07;4.88;;;3.80;;
70126;SDS011;57491;42.694;23.314;2023-07-28T10:08:34;11.70;;;4.38;;
70126;SDS011;57491;42.694;23.314;2023-07-28T10:11:03;7.70;;;4.07;;
70126;SDS011;57491;42.694;23.314;2023-07-28T10:13:39;8.68;;;3.88;;
70126;SDS011;57491;42.694;23.314;2023-07-28T10:16:07;10.43;;;4.40;;
70126;SDS011;57491;42.694;23.314;2023-07-28T10:18:36;6.43;;;4.05;;
70126;SDS011;57491;42.694;23.314;2023-07-28T10:21:04;5.85;;;4.50;;
70126;SDS011;57491;42.694;23.314;2023-07-28T10:23:33;6.10;;;3.80;;
70126;SDS011;57491;42.694;23.314;2023-07-28T10:26:01;4.72;;;4.07;;
70126;SDS011;57491;42.694;23.314;2023-07-28T10:28:31;7.25;;;4.45;;
70126;SDS011;57491;42.694;23.314;2023-07-28T10:31:04;6.82;;;4.47;;
70126;SDS011;57491;42.694;23.314;2023-07-28T10:33:33;6.10;;;4.30;;
70126;SDS011;57491;42.694;23.314;2023-07-28T10:36:12;5.80;;;3.97;;
70126;SDS011;57491;42.694;23.314;2023-07-28T10:38:41;6.90;;;3.92;;
70126;SDS011;57491;42.694;23.314;2023-07-28T10:41:13;7.57;;;3.88;;
70126;SDS011;57491;42.694;23.314;2023-07-28T10:43:42;10.40;;;7.18;;
70126;SDS011;57491;42.694;23.314;2023-07-28T10:46:10;18.27;;;11.45;;
70126;SDS011;57491;42.694;23.314;2023-07-28T10:48:41;15.50;;;10.38;;
70126;SDS011;57491;42.694;23.314;2023-07-28T10:51:09;7.20;;;5.22;;
70126;SDS011;57491;42.694;23.314;2023-07-28T10:53:39;8.80;;;4.60;;
70126;SDS011;57491;42.694;23.314;2023-07-28T10:56:06;4.63;;;4.05;;
70126;SDS011;57491;42.694;23.314;2023-07-28T10:58:36;9.60;;;7.55;;
70126;SDS011;57491;42.694;23.314;2023-07-28T11:01:03;5.55;;;3.97;;
70126;SDS011;57491;42.694;23.314;2023-07-28T11:03:30;12.60;;;4.32;;
70126;SDS011;57491;42.694;23.314;2023-07-28T11:05:57;7.85;;;4.43;;
70126;SDS011;57491;42.694;23.314;2023-07-28T11:08:24;4.78;;;4.15;;
70126;SDS011;57491;42.694;23.314;2023-07-28T11:10:53;7.13;;;3.88;;
70126;SDS011;57491;42.694;23.314;2023-07-28T11:13:20;6.18;;;3.80;;
70126;SDS011;57491;42.694;23.314;2023-07-28T11:15:50;5.50;;;3.70;;
70126;SDS011;57491;42.694;23.314;2023-07-28T11:18:17;6.15;;;3.72;;
70126;SDS011;57491;42.694;23.314;2023-07-28T11:20:44;6.20;;;3.67;;
70126;SDS011;57491;42.694;23.314;2023-07-28T11:23:13;6.10;;;3.35;;
70126;SDS011;57491;42.694;23.314;2023-07-28T11:25:41;8.15;;;4.00;;
70126;SDS011;57491;42.694;23.314;2023-07-28T11:28:11;6.45;;;3.85;;
70126;SDS011;57491;42.694;23.314;2023-07-28T11:30:39;3.28;;;2.83;;
70126;SDS011;57491;42.694;23.314;2023-07-28T11:33:08;4.28;;;2.85;;
70126;SDS011;57491;42.694;23.314;2023-07-28T11:35:38;3.85;;;3.25;;
70126;SDS011;57491;42.694;23.314;2023-07-28T11:38:06;4.35;;;3.97;;
70126;SDS011;57491;42.694;23.314;2023-07-28T11:40:34;7.05;;;3.53;;
70126;SDS011;57491;42.694;23.314;2023-07-28T11:43:02;4.38;;;2.95;;
70126;SDS011;57491;42.694;23.314;2023-07-28T11:45:31;3.50;;;3.20;;
70126;SDS011;57491;42.694;23.314;2023-07-28T11:47:59;4.68;;;3.35;;
70126;SDS011;57491;42.694;23.314;2023-07-28T11:50:29;4.43;;;3.20;;
70126;SDS011;57491;42.694;23.314;2023-07-28T11:52:58;4.75;;;3.30;;
70126;SDS011;57491;42.694;23.314;2023-07-28T11:55:25;7.88;;;3.78;;
70126;SDS011;57491;42.694;23.314;2023-07-28T11:57:53;6.22;;;3.47;;
70126;SDS011;57491;42.694;23.314;2023-07-28T12:00:24;4.32;;;3.00;;
70126;SDS011;57491;42.694;23.314;2023-07-28T12:03:07;4.05;;;3.60;;
70126;SDS011;57491;42.694;23.314;2023-07-28T12:05:37;3.50;;;3.20;;
70126;SDS011;57491;42.694;23.314;2023-07-28T12:08:04;7.13;;;3.50;;
70126;SDS011;57491;42.694;23.314;2023-07-28T12:10:33;4.55;;;3.47;;
70126;SDS011;57491;42.694;23.314;2023-07-28T12:13:03;4.35;;;3.53;;
70126;SDS011;57491;42.694;23.314;2023-07-28T12:15:31;3.70;;;3.35;;
70126;SDS011;57491;42.694;23.314;2023-07-28T12:20:49;5.35;;;3.95;;
70126;SDS011;57491;42.694;23.314;2023-07-28T12:23:17;3.92;;;3.53;;
70126;SDS011;57491;42.694;23.314;2023-07-28T12:25:46;6.85;;;4.43;;
70126;SDS011;57491;42.694;23.314;2023-07-28T12:28:14;4.75;;;3.58;;
70126;SDS011;57491;42.694;23.314;2023-07-28T12:30:42;6.53;;;4.10;;
70126;SDS011;57491;42.694;23.314;2023-07-28T12:33:09;3.33;;;3.03;;
70126;SDS011;57491;42.694;23.314;2023-07-28T12:35:38;4.13;;;3.10;;
70126;SDS011;57491;42.694;23.314;2023-07-28T12:38:05;3.75;;;3.45;;
70126;SDS011;57491;42.694;23.314;2023-07-28T12:40:33;4.13;;;3.70;;
70126;SDS011;57491;42.694;23.314;2023-07-28T12:43:01;4.30;;;3.70;;
70126;SDS011;57491;42.694;23.314;2023-07-28T12:45:30;5.22;;;3.33;;
70126;SDS011;57491;42.694;23.314;2023-07-28T12:50:24;4.60;;;3.15;;
70126;SDS011;57491;42.694;23.314;2023-07-28T12:55:19;3.25;;;2.95;;
70126;SDS011;57491;42.694;23.314;2023-07-28T12:57:47;4.40;;;4.00;;
70126;SDS011;57491;42.694;23.314;2023-07-28T13:00:15;4.30;;;3.00;;
70126;SDS011;57491;42.694;23.314;2023-07-28T13:02:43;3.40;;;3.08;;
70126;SDS011;57491;42.694;23.314;2023-07-28T13:05:11;4.07;;;3.15;;
70126;SDS011;57491;42.694;23.314;2023-07-28T13:07:39;3.72;;;3.05;;
70126;SDS011;57491;42.694;23.314;2023-07-28T13:10:09;3.47;;;3.05;;
70126;SDS011;57491;42.694;23.314;2023-07-28T13:12:38;3.45;;;3.15;;
70126;SDS011;57491;42.694;23.314;2023-07-28T13:17:32;4.43;;;3.00;;
70126;SDS011;57491;42.694;23.314;2023-07-28T13:19:59;3.47;;;2.90;;
70126;SDS011;57491;42.694;23.314;2023-07-28T13:24:53;3.90;;;3.10;;
70126;SDS011;57491;42.694;23.314;2023-07-28T13:27:22;3.90;;;3.35;;
70126;SDS011;57491;42.694;23.314;2023-07-28T13:29:49;3.20;;;2.90;;
70126;SDS011;57491;42.694;23.314;2023-07-28T13:32:17;2.95;;;2.75;;
70126;SDS011;57491;42.694;23.314;2023-07-28T13:34:45;9.52;;;7.18;;
70126;SDS011;57491;42.694;23.314;2023-07-28T13:39:39;3.92;;;3.63;;
70126;SDS011;57491;42.694;23.314;2023-07-28T13:42:08;4.55;;;3.72;;
70126;SDS011;57491;42.694;23.314;2023-07-28T13:44:38;3.47;;;3.17;;
70126;SDS011;57491;42.694;23.314;2023-07-28T13:47:05;3.58;;;3.20;;
70126;SDS011;57491;42.694;23.314;2023-07-28T13:49:32;4.10;;;3.10;;
70126;SDS011;57491;42.694;23.314;2023-07-28T13:52:01;3.53;;;3.22;;
70126;SDS011;57491;42.694;23.314;2023-07-28T14:01:50;4.40;;;3.40;;
70126;SDS011;57491;42.694;23.314;2023-07-28T14:04:17;3.22;;;2.92;;
70126;SDS011;57491;42.694;23.314;2023-07-28T14:06:44;3.45;;;3.15;;
70126;SDS011;57491;42.694;23.314;2023-07-28T14:09:11;3.47;;;3.05;;
70126;SDS011;57491;42.694;23.314;2023-07-28T14:11:38;6.28;;;3.53;;
70126;SDS011;57491;42.694;23.314;2023-07-28T14:14:05;3.95;;;3.60;;
70126;SDS011;57491;42.694;23.314;2023-07-28T14:16:33;4.30;;;3.90;;
70126;SDS011;57491;42.694;23.314;2023-07-28T14:19:01;4.53;;;3.30;;
70126;SDS011;57491;42.694;23.314;2023-07-28T14:21:29;3.60;;;3.30;;
70126;SDS011;57491;42.694;23.314;2023-07-28T14:23:56;4.10;;;3.58;;
70126;SDS011;57491;42.694;23.314;2023-07-28T14:26:24;4.43;;;3.20;;
70126;SDS011;57491;42.694;23.314;2023-07-28T14:28:51;3.60;;;3.30;;
70126;SDS011;57491;42.694;23.314;2023-07-28T14:31:19;3.10;;;2.90;;
70126;SDS011;57491;42.694;23.314;2023-07-28T14:33:46;5.50;;;3.85;;
70126;SDS011;57491;42.694;23.314;2023-07-28T14:36:14;4.72;;;3.75;;
70126;SDS011;57491;42.694;23.314;2023-07-28T14:38:42;4.10;;;3.75;;
70126;SDS011;57491;42.694;23.314;2023-07-28T14:41:09;5.70;;;3.88;;
70126;SDS011;57491;42.694;23.314;2023-07-28T14:43:36;5.07;;;4.13;;
70126;SDS011;57491;42.694;23.314;2023-07-28T14:46:03;4.00;;;3.58;;
70126;SDS011;57491;42.694;23.314;2023-07-28T14:48:30;4.30;;;3.33;;
70126;SDS011;57491;42.694;23.314;2023-07-28T14:50:57;3.95;;;3.50;;
70126;SDS011;57491;42.694;23.314;2023-07-28T14:53:29;3.88;;;3.15;;
70126;SDS011;57491;42.694;23.314;2023-07-28T14:55:57;4.97;;;3.70;;
70126;SDS011;57491;42.694;23.314;2023-07-28T14:58:25;4.47;;;3.40;;
70126;SDS011;57491;42.694;23.314;2023-07-28T15:00:52;3.67;;;3.35;;
70126;SDS011;57491;42.694;23.314;2023-07-28T15:03:19;4.35;;;3.72;;
70126;SDS011;57491;42.694;23.314;2023-07-28T15:05:46;4.53;;;3.63;;
70126;SDS011;57491;42.694;23.314;2023-07-28T15:08:13;3.28;;;2.97;;
70126;SDS011;57491;42.694;23.314;2023-07-28T15:10:42;6.50;;;3.58;;
70126;SDS011;57491;42.694;23.314;2023-07-28T15:13:09;5.22;;;3.72;;
70126;SDS011;57491;42.694;23.314;2023-07-28T15:15:36;5.10;;;3.95;;
70126;SDS011;57491;42.694;23.314;2023-07-28T15:20:30;4.22;;;3.40;;
70126;SDS011;57491;42.694;23.314;2023-07-28T15:22:57;3.83;;;3.05;;
70126;SDS011;57491;42.694;23.314;2023-07-28T15:27:53;3.40;;;2.97;;
70126;SDS011;57491;42.694;23.314;2023-07-28T15:30:20;4.22;;;3.20;;
70126;SDS011;57491;42.694;23.314;2023-07-28T15:32:47;5.18;;;4.10;;
70126;SDS011;57491;42.694;23.314;2023-07-28T15:35:14;5.97;;;4.28;;